EWG4EL EDDL-LIMC
Flight info
| Callsign | EWG4EL |
|---|---|
| Flight time | N/A |
| Altitude | 33000 |
| Route | KUMIK7T KUMIK L603 BOMBI N850 RINEX DCT KRH DCT NATOR DCT TRA N850 DEGAD Z424 RIXUV |
| Aircraft | A20N/M-SDE2E3FGHIRWXY/LB1 |
Departure
| Time | 2026-05-05 21:17 |
|---|---|
| Airport | Düsseldorf Airport (EDDL) |
Arrival
| Time | N/A |
|---|---|
| Airport | Milan Malpensa International Airport (LIMC) |
| Time | Latitude | Longitude | Altitude | Speed | Heading |
|---|---|---|---|---|---|
| 2026-05-05 21:00 | 51.28154 | 6.76737 | 130 ft | 0 kts | 276° |
| 2026-05-05 21:03 | 51.28154 | 6.76738 | 130 ft | 0 kts | 276° |
| 2026-05-05 21:07 | 51.28154 | 6.76739 | 130 ft | 3 kts | 276° |
| 2026-05-05 21:07 | 51.28152 | 6.76774 | 126 ft | 3 kts | 276° |
| 2026-05-05 21:07 | 51.28149 | 6.76808 | 127 ft | 3 kts | 301° |
| 2026-05-05 21:08 | 51.28136 | 6.76825 | 126 ft | 2 kts | 358° |
| 2026-05-05 21:08 | 51.28133 | 6.76826 | 126 ft | 0 kts | 9° |
| 2026-05-05 21:10 | 51.28136 | 6.76826 | 126 ft | 1 kts | 9° |
| 2026-05-05 21:10 | 51.28154 | 6.76831 | 128 ft | 4 kts | 9° |
| 2026-05-05 21:10 | 51.28191 | 6.76840 | 130 ft | 7 kts | 8° |
| 2026-05-05 21:11 | 51.28238 | 6.76850 | 130 ft | 7 kts | 7° |
| 2026-05-05 21:11 | 51.28283 | 6.76859 | 129 ft | 7 kts | 6° |
| 2026-05-05 21:11 | 51.28333 | 6.76867 | 128 ft | 7 kts | 5° |
| 2026-05-05 21:11 | 51.28382 | 6.76854 | 124 ft | 8 kts | 332° |
| 2026-05-05 21:12 | 51.28425 | 6.76802 | 123 ft | 8 kts | 322° |
| 2026-05-05 21:12 | 51.28467 | 6.76774 | 124 ft | 5 kts | 1° |
| 2026-05-05 21:12 | 51.28501 | 6.76802 | 123 ft | 7 kts | 42° |
| 2026-05-05 21:12 | 51.28542 | 6.76887 | 124 ft | 12 kts | 53° |
| 2026-05-05 21:13 | 51.28601 | 6.77015 | 126 ft | 17 kts | 54° |
| 2026-05-05 21:13 | 51.28679 | 6.77173 | 125 ft | 18 kts | 52° |
| 2026-05-05 21:13 | 51.28753 | 6.77330 | 124 ft | 17 kts | 54° |
| 2026-05-05 21:13 | 51.28818 | 6.77473 | 127 ft | 15 kts | 52° |
| 2026-05-05 21:14 | 51.28882 | 6.77600 | 126 ft | 15 kts | 52° |
| 2026-05-05 21:14 | 51.28950 | 6.77742 | 128 ft | 17 kts | 53° |
| 2026-05-05 21:14 | 51.29025 | 6.77897 | 127 ft | 18 kts | 53° |
| 2026-05-05 21:14 | 51.29098 | 6.78055 | 132 ft | 17 kts | 54° |
| 2026-05-05 21:15 | 51.29157 | 6.78182 | 135 ft | 12 kts | 53° |
| 2026-05-05 21:15 | 51.29200 | 6.78272 | 139 ft | 9 kts | 52° |
| 2026-05-05 21:15 | 51.29240 | 6.78355 | 142 ft | 13 kts | 52° |
| 2026-05-05 21:15 | 51.29313 | 6.78503 | 148 ft | 18 kts | 51° |
| 2026-05-05 21:16 | 51.29412 | 6.78572 | 152 ft | 15 kts | 356° |
| 2026-05-05 21:16 | 51.29512 | 6.78560 | 153 ft | 12 kts | 353° |
| 2026-05-05 21:16 | 51.29523 | 6.78477 | 152 ft | 4 kts | 234° |
| 2026-05-05 21:16 | 51.29505 | 6.78439 | 150 ft | 9 kts | 232° |
| 2026-05-05 21:17 | 51.29319 | 6.78051 | 142 ft | 82 kts | 232° |
| 2026-05-05 21:17 | 51.28847 | 6.77058 | 127 ft | 142 kts | 232° |
| 2026-05-05 21:17 | 51.28146 | 6.75617 | 273 ft | 177 kts | 234° |
| 2026-05-05 21:17 | 51.27416 | 6.74074 | 973 ft | 174 kts | 236° |
| 2026-05-05 21:18 | 51.26698 | 6.72495 | 1656 ft | 178 kts | 235° |
| 2026-05-05 21:18 | 51.25950 | 6.70826 | 2137 ft | 194 kts | 234° |
| 2026-05-05 21:18 | 51.25110 | 6.69004 | 2557 ft | 212 kts | 232° |
| 2026-05-05 21:18 | 51.24194 | 6.67047 | 3013 ft | 229 kts | 232° |
| 2026-05-05 21:19 | 51.23130 | 6.64987 | 3387 ft | 251 kts | 219° |
| 2026-05-05 21:19 | 51.21553 | 6.63687 | 3875 ft | 264 kts | 190° |
| 2026-05-05 21:19 | 51.19716 | 6.63670 | 4647 ft | 266 kts | 173° |
| 2026-05-05 21:19 | 51.17864 | 6.63999 | 5512 ft | 269 kts | 173° |
| 2026-05-05 21:20 | 51.15999 | 6.64434 | 6338 ft | 273 kts | 162° |
| 2026-05-05 21:20 | 51.14349 | 6.65902 | 7092 ft | 276 kts | 135° |
| 2026-05-05 21:20 | 51.13282 | 6.68431 | 7851 ft | 279 kts | 109° |
| 2026-05-05 21:20 | 51.13025 | 6.71492 | 8597 ft | 283 kts | 87° |
| 2026-05-05 21:21 | 51.13157 | 6.74636 | 9397 ft | 286 kts | 84° |
| 2026-05-05 21:21 | 51.13321 | 6.77769 | 10127 ft | 292 kts | 85° |
| 2026-05-05 21:21 | 51.13486 | 6.81104 | 10407 ft | 313 kts | 85° |
| 2026-05-05 21:21 | 51.13642 | 6.84692 | 10633 ft | 334 kts | 86° |
| 2026-05-05 21:22 | 51.13788 | 6.88432 | 11213 ft | 341 kts | 86° |
| 2026-05-05 21:22 | 51.13929 | 6.92227 | 11928 ft | 344 kts | 87° |
| 2026-05-05 21:22 | 51.14068 | 6.96057 | 12628 ft | 348 kts | 87° |
| 2026-05-05 21:22 | 51.14207 | 6.99920 | 13332 ft | 352 kts | 87° |
| 2026-05-05 21:23 | 51.14346 | 7.03842 | 13979 ft | 355 kts | 88° |
| 2026-05-05 21:23 | 51.14485 | 7.07790 | 14599 ft | 358 kts | 88° |
| 2026-05-05 21:23 | 51.14623 | 7.11774 | 15192 ft | 362 kts | 88° |
| 2026-05-05 21:23 | 51.14759 | 7.15738 | 15791 ft | 365 kts | 88° |
| 2026-05-05 21:24 | 51.14898 | 7.19790 | 16397 ft | 368 kts | 88° |
| 2026-05-05 21:24 | 51.15037 | 7.23883 | 16994 ft | 371 kts | 88° |
| 2026-05-05 21:24 | 51.15176 | 7.28017 | 17576 ft | 375 kts | 88° |
| 2026-05-05 21:24 | 51.15315 | 7.32191 | 18155 ft | 378 kts | 88° |
| 2026-05-05 21:25 | 51.15453 | 7.36390 | 18680 ft | 381 kts | 88° |
| 2026-05-05 21:25 | 51.15591 | 7.40620 | 19211 ft | 383 kts | 88° |
| 2026-05-05 21:25 | 51.15727 | 7.44868 | 19726 ft | 386 kts | 88° |
| 2026-05-05 21:25 | 51.15864 | 7.49164 | 20235 ft | 389 kts | 88° |
| 2026-05-05 21:26 | 51.16001 | 7.53485 | 20748 ft | 391 kts | 88° |
| 2026-05-05 21:26 | 51.16136 | 7.57781 | 21250 ft | 394 kts | 88° |
| 2026-05-05 21:26 | 51.16106 | 7.62143 | 21735 ft | 395 kts | 100° |
| 2026-05-05 21:26 | 51.15365 | 7.66343 | 22217 ft | 395 kts | 116° |
| 2026-05-05 21:27 | 51.13916 | 7.70046 | 22685 ft | 395 kts | 131° |
| 2026-05-05 21:27 | 51.11893 | 7.72992 | 23174 ft | 396 kts | 143° |
| 2026-05-05 21:27 | 51.09703 | 7.75662 | 23618 ft | 398 kts | 143° |
| 2026-05-05 21:27 | 51.07503 | 7.78341 | 24089 ft | 399 kts | 143° |
| 2026-05-05 21:28 | 51.05299 | 7.81027 | 24525 ft | 400 kts | 143° |
| 2026-05-05 21:28 | 51.03087 | 7.83726 | 24942 ft | 402 kts | 143° |
| 2026-05-05 21:28 | 51.00864 | 7.86438 | 25354 ft | 403 kts | 143° |
| 2026-05-05 21:28 | 50.98636 | 7.89153 | 25770 ft | 404 kts | 143° |
| 2026-05-05 21:29 | 50.96403 | 7.91870 | 26154 ft | 406 kts | 142° |
| 2026-05-05 21:29 | 50.94160 | 7.94598 | 26550 ft | 407 kts | 142° |
| 2026-05-05 21:29 | 50.91904 | 7.97338 | 26932 ft | 408 kts | 142° |
| 2026-05-05 21:29 | 50.89646 | 8.00076 | 27307 ft | 410 kts | 142° |
| 2026-05-05 21:30 | 50.87376 | 8.02825 | 27678 ft | 411 kts | 142° |
| 2026-05-05 21:30 | 50.85167 | 8.05703 | 28024 ft | 412 kts | 137° |
| 2026-05-05 21:30 | 50.83167 | 8.08962 | 28370 ft | 413 kts | 130° |
| 2026-05-05 21:30 | 50.81429 | 8.12520 | 28702 ft | 415 kts | 124° |
| 2026-05-05 21:31 | 50.79837 | 8.16332 | 29030 ft | 416 kts | 124° |
| 2026-05-05 21:31 | 50.78239 | 8.20155 | 29364 ft | 417 kts | 124° |
| 2026-05-05 21:31 | 50.76633 | 8.23974 | 29645 ft | 418 kts | 124° |
| 2026-05-05 21:31 | 50.75013 | 8.27806 | 29970 ft | 419 kts | 124° |
| 2026-05-05 21:32 | 50.73390 | 8.31637 | 30213 ft | 421 kts | 124° |
| 2026-05-05 21:32 | 50.71743 | 8.35466 | 30464 ft | 422 kts | 127° |
| 2026-05-05 21:32 | 50.69829 | 8.39004 | 30689 ft | 424 kts | 135° |
| 2026-05-05 21:32 | 50.67597 | 8.42056 | 30951 ft | 426 kts | 143° |
| 2026-05-05 21:33 | 50.65098 | 8.44559 | 31266 ft | 426 kts | 151° |
| 2026-05-05 21:33 | 50.62479 | 8.46744 | 31611 ft | 425 kts | 151° |
| 2026-05-05 21:33 | 50.59872 | 8.48936 | 31954 ft | 424 kts | 151° |
| 2026-05-05 21:33 | 50.57273 | 8.51128 | 32278 ft | 423 kts | 151° |
| 2026-05-05 21:34 | 50.54679 | 8.53316 | 32592 ft | 422 kts | 151° |
| 2026-05-05 21:34 | 50.52125 | 8.55466 | 32743 ft | 421 kts | 151° |
| 2026-05-05 21:34 | 50.46962 | 8.59803 | 32816 ft | 421 kts | 152° |
| 2026-05-05 21:35 | 50.41547 | 8.63317 | 32818 ft | 423 kts | 162° |
| 2026-05-05 21:35 | 50.35894 | 8.65934 | 32814 ft | 424 kts | 162° |
| 2026-05-05 21:36 | 50.30231 | 8.68577 | 32813 ft | 425 kts | 162° |
| 2026-05-05 21:36 | 50.24570 | 8.71225 | 32805 ft | 425 kts | 162° |
| 2026-05-05 21:37 | 50.18934 | 8.73856 | 32805 ft | 425 kts | 162° |
| 2026-05-05 21:37 | 50.13255 | 8.76501 | 32805 ft | 426 kts | 162° |
| 2026-05-05 21:38 | 50.07509 | 8.78761 | 32802 ft | 427 kts | 172° |
| 2026-05-05 21:38 | 50.01559 | 8.78606 | 32798 ft | 431 kts | 188° |
| 2026-05-05 21:39 | 49.95694 | 8.76584 | 32798 ft | 432 kts | 191° |
| 2026-05-05 21:39 | 49.89830 | 8.74545 | 32810 ft | 432 kts | 191° |
| 2026-05-05 21:40 | 49.83956 | 8.72519 | 32819 ft | 432 kts | 191° |
| 2026-05-05 21:40 | 49.78122 | 8.70514 | 32825 ft | 432 kts | 191° |
| 2026-05-05 21:41 | 49.72206 | 8.68771 | 32835 ft | 431 kts | 185° |
| 2026-05-05 21:41 | 49.66227 | 8.67984 | 32839 ft | 431 kts | 184° |
| 2026-05-05 21:42 | 49.60246 | 8.67196 | 32838 ft | 431 kts | 184° |
| 2026-05-05 21:42 | 49.54271 | 8.66398 | 32836 ft | 431 kts | 184° |
| 2026-05-05 21:43 | 49.48290 | 8.65600 | 32834 ft | 430 kts | 184° |
| 2026-05-05 21:43 | 49.42315 | 8.64805 | 32830 ft | 430 kts | 184° |
| 2026-05-05 21:44 | 49.36354 | 8.64014 | 32827 ft | 430 kts | 185° |
| 2026-05-05 21:44 | 49.30439 | 8.63212 | 32827 ft | 429 kts | 185° |
| 2026-05-05 21:45 | 49.24497 | 8.62289 | 32831 ft | 429 kts | 186° |
| 2026-05-05 21:45 | 49.18554 | 8.61363 | 32827 ft | 429 kts | 186° |
| 2026-05-05 21:46 | 49.12618 | 8.60454 | 32827 ft | 429 kts | 186° |
| 2026-05-05 21:46 | 49.06681 | 8.59552 | 32835 ft | 429 kts | 186° |
| 2026-05-05 21:47 | 49.00735 | 8.58649 | 32837 ft | 429 kts | 186° |
| 2026-05-05 21:47 | 48.94903 | 8.57033 | 32842 ft | 429 kts | 192° |
| 2026-05-05 21:48 | 48.89068 | 8.55121 | 32849 ft | 429 kts | 192° |
| 2026-05-05 21:48 | 48.83222 | 8.53227 | 32857 ft | 429 kts | 192° |
| 2026-05-05 21:49 | 48.77380 | 8.51343 | 32861 ft | 429 kts | 192° |
| 2026-05-05 21:49 | 48.71532 | 8.49463 | 32864 ft | 429 kts | 192° |
| 2026-05-05 21:50 | 48.65681 | 8.47585 | 32871 ft | 429 kts | 192° |
| 2026-05-05 21:50 | 48.59870 | 8.45724 | 32876 ft | 429 kts | 192° |
| 2026-05-05 21:51 | 48.54024 | 8.43858 | 32878 ft | 429 kts | 192° |
| 2026-05-05 21:51 | 48.48185 | 8.41997 | 32885 ft | 429 kts | 192° |
| 2026-05-05 21:52 | 48.39426 | 8.39215 | 32886 ft | 428 kts | 192° |
| 2026-05-05 21:53 | 48.33583 | 8.37364 | 32884 ft | 428 kts | 192° |
| 2026-05-05 21:53 | 48.27787 | 8.35533 | 32888 ft | 428 kts | 192° |
| 2026-05-05 21:54 | 48.21960 | 8.33697 | 32886 ft | 427 kts | 192° |
| 2026-05-05 21:54 | 48.16039 | 8.32814 | 32890 ft | 429 kts | 181° |
| 2026-05-05 21:55 | 48.10092 | 8.33767 | 32891 ft | 431 kts | 173° |
| 2026-05-05 21:55 | 48.04185 | 8.35235 | 32887 ft | 430 kts | 173° |
| 2026-05-05 21:56 | 47.98313 | 8.36659 | 32891 ft | 430 kts | 173° |
| 2026-05-05 21:56 | 47.92409 | 8.38082 | 32897 ft | 429 kts | 173° |
| 2026-05-05 21:57 | 47.86509 | 8.39501 | 32901 ft | 429 kts | 174° |
| 2026-05-05 21:57 | 47.81613 | 8.40676 | 32903 ft | 429 kts | 174° |
| 2026-05-05 21:58 | 47.75721 | 8.42087 | 32910 ft | 428 kts | 174° |
| 2026-05-05 21:58 | 47.69838 | 8.43493 | 32917 ft | 428 kts | 174° |
| 2026-05-05 21:59 | 47.63950 | 8.44454 | 32913 ft | 425 kts | 178° |
| 2026-05-05 21:59 | 47.58065 | 8.45316 | 32916 ft | 425 kts | 178° |
| 2026-05-05 22:00 | 47.52186 | 8.46180 | 32912 ft | 424 kts | 178° |
| 2026-05-05 22:00 | 47.46355 | 8.47037 | 32912 ft | 423 kts | 178° |
| 2026-05-05 22:01 | 47.40496 | 8.47896 | 32910 ft | 423 kts | 178° |
| 2026-05-05 22:01 | 47.34635 | 8.48754 | 32914 ft | 422 kts | 178° |
| 2026-05-05 22:02 | 47.28783 | 8.49607 | 32911 ft | 422 kts | 179° |
| 2026-05-05 22:02 | 47.22933 | 8.50459 | 32916 ft | 422 kts | 179° |
| 2026-05-05 22:03 | 47.17125 | 8.51306 | 32916 ft | 421 kts | 179° |
| 2026-05-05 22:03 | 47.11291 | 8.52154 | 32918 ft | 421 kts | 179° |
| 2026-05-05 22:04 | 47.05466 | 8.52998 | 32947 ft | 421 kts | 179° |
| 2026-05-05 22:04 | 46.99653 | 8.53840 | 32945 ft | 418 kts | 179° |
| 2026-05-05 22:05 | 46.93860 | 8.54675 | 32940 ft | 417 kts | 180° |
| 2026-05-05 22:05 | 46.88074 | 8.55506 | 32937 ft | 419 kts | 180° |
| 2026-05-05 22:06 | 46.82307 | 8.56337 | 32929 ft | 415 kts | 180° |
| 2026-05-05 22:06 | 46.76569 | 8.57157 | 32952 ft | 418 kts | 180° |
| 2026-05-05 22:07 | 46.70791 | 8.57982 | 32947 ft | 416 kts | 180° |
| 2026-05-05 22:07 | 46.65026 | 8.58803 | 32960 ft | 415 kts | 180° |
| 2026-05-05 22:08 | 46.59292 | 8.59618 | 32970 ft | 414 kts | 180° |
| 2026-05-05 22:08 | 46.53555 | 8.60433 | 32978 ft | 414 kts | 180° |
| 2026-05-05 22:09 | 46.47825 | 8.61231 | 32970 ft | 412 kts | 182° |
| 2026-05-05 22:09 | 46.44997 | 8.61085 | 32986 ft | 403 kts | 193° |
| 2026-05-05 22:09 | 46.42325 | 8.60151 | 32977 ft | 398 kts | 203° |
| 2026-05-05 22:10 | 46.37510 | 8.56382 | 32996 ft | 394 kts | 213° |
| 2026-05-05 22:10 | 46.32840 | 8.52177 | 32997 ft | 396 kts | 213° |
| 2026-05-05 22:11 | 46.27934 | 8.48613 | 32990 ft | 398 kts | 199° |
| 2026-05-05 22:11 | 46.22373 | 8.47892 | 32997 ft | 411 kts | 180° |
| 2026-05-05 22:12 | 46.16654 | 8.48741 | 33002 ft | 412 kts | 180° |
| 2026-05-05 22:12 | 46.10982 | 8.49861 | 32994 ft | 417 kts | 173° |